Time;durP1;ratioP1;P1;durP2;ratioP2;P2;SDS_P1;SDS_P2;PMS_P1;PMS_P2;Temp;Humidity;BMP_temperature;BMP_pressure;BME280_temperature;BME280_humidity;BME280_pressure;Samples;Min_cycle;Max_cycle;Signal;HPM_P1;HPM_P2
2023/09/21 00:01:07;;;;;;;4.82;1.75;;;18.10;99.90;;;;;;5006036;28;20027;-78
2023/09/21 00:03:36;;;;;;;4.07;1.70;;;18.00;99.90;;;;;;5010113;28;20034;-78
2023/09/21 00:06:03;;;;;;;3.65;1.95;;;18.10;99.90;;;;;;4997515;28;20044;-78
2023/09/21 00:08:33;;;;;;;3.92;1.65;;;18.00;99.90;;;;;;4996474;28;20515;-78
2023/09/21 00:11:00;;;;;;;2.92;1.65;;;18.00;99.90;;;;;;4996911;28;20037;-78
2023/09/21 00:13:31;;;;;;;4.30;1.85;;;18.00;99.90;;;;;;4997114;28;20015;-79
2023/09/21 00:15:59;;;;;;;3.65;1.60;;;18.00;99.90;;;;;;5012691;28;20018;-77
2023/09/21 00:18:26;;;;;;;3.97;2.00;;;18.00;99.90;;;;;;4989216;28;20061;-78
2023/09/21 00:20:54;;;;;;;3.55;1.58;;;17.90;99.90;;;;;;4997136;28;20036;-78
2023/09/21 00:23:21;;;;;;;5.80;2.13;;;17.90;99.90;;;;;;5012529;28;20035;-78
2023/09/21 00:25:47;;;;;;;4.60;2.08;;;17.90;99.90;;;;;;4998464;28;20022;-78
2023/09/21 00:28:21;;;;;;;2.88;1.80;;;17.90;99.90;;;;;;4996902;28;20477;-78
2023/09/21 00:30:49;;;;;;;4.18;2.17;;;17.90;99.90;;;;;;5011364;28;20049;-78
2023/09/21 00:33:17;;;;;;;3.30;1.90;;;17.80;99.90;;;;;;4992658;28;20050;-78
2023/09/21 00:35:44;;;;;;;3.85;1.55;;;17.90;99.90;;;;;;4991594;28;20545;-78
2023/09/21 00:38:10;;;;;;;2.95;2.00;;;17.80;99.90;;;;;;4988940;28;20022;-78
2023/09/21 00:40:39;;;;;;;5.93;2.15;;;17.90;99.90;;;;;;4991715;28;20109;-79
2023/09/21 00:43:07;;;;;;;9.02;2.38;;;17.80;99.90;;;;;;5008460;28;20437;-78
2023/09/21 00:45:43;;;;;;;3.28;1.50;;;17.80;99.90;;;;;;4994876;28;20541;-77
2023/09/21 00:48:13;;;;;;;3.10;1.65;;;17.70;99.90;;;;;;4992099;28;20041;-78
2023/09/21 00:50:46;;;;;;;3.38;2.00;;;17.70;99.90;;;;;;5001976;28;20037;-79
2023/09/21 00:53:13;;;;;;;5.38;2.15;;;17.70;99.90;;;;;;4991966;28;20034;-78
2023/09/21 00:55:40;;;;;;;4.55;1.83;;;17.70;99.90;;;;;;4991284;28;20026;-78
2023/09/21 00:58:07;;;;;;;2.53;1.88;;;17.70;99.90;;;;;;4992810;28;20147;-78
2023/09/21 01:00:37;;;;;;;3.58;1.80;;;17.60;99.90;;;;;;4990928;28;20022;-79
2023/09/21 01:03:14;;;;;;;3.05;1.88;;;17.60;99.90;;;;;;5009029;28;20022;-77
2023/09/21 01:05:42;;;;;;;3.42;2.22;;;17.70;99.90;;;;;;4992444;28;20076;-78
2023/09/21 01:08:18;;;;;;;5.63;2.35;;;17.60;99.90;;;;;;4990111;28;20029;-78
2023/09/21 01:10:49;;;;;;;3.38;1.73;;;17.60;99.90;;;;;;4992236;28;20026;-78
2023/09/21 01:13:19;;;;;;;5.03;1.92;;;17.70;99.90;;;;;;4991531;28;20030;-78
2023/09/21 01:15:58;;;;;;;2.40;1.73;;;17.60;99.90;;;;;;4990637;28;20031;-78
2023/09/21 01:18:26;;;;;;;4.05;2.25;;;17.60;99.90;;;;;;4987673;28;20043;-77
2023/09/21 01:21:06;;;;;;;4.28;2.20;;;17.60;99.90;;;;;;4987585;28;20019;-78
2023/09/21 01:23:45;;;;;;;3.10;1.83;;;17.60;99.90;;;;;;4988724;28;20501;-77
2023/09/21 01:26:16;;;;;;;3.33;1.95;;;17.60;99.90;;;;;;4991738;28;20393;-77
2023/09/21 01:28:42;;;;;;;5.13;1.88;;;17.60;99.90;;;;;;4991019;28;20477;-78
2023/09/21 01:31:13;;;;;;;3.70;1.75;;;17.60;99.90;;;;;;4991750;28;20034;-78
2023/09/21 01:33:39;;;;;;;3.10;1.75;;;17.50;99.90;;;;;;4988777;28;20226;-78
2023/09/21 01:36:09;;;;;;;5.13;1.83;;;17.50;99.90;;;;;;4993236;28;20026;-78
2023/09/21 01:38:45;;;;;;;4.70;1.77;;;17.50;99.90;;;;;;4991994;28;20026;-77
2023/09/21 01:41:21;;;;;;;3.45;2.20;;;17.50;99.90;;;;;;4988336;28;20022;-79
2023/09/21 01:43:50;;;;;;;4.53;1.90;;;17.50;99.90;;;;;;4992972;28;20036;-78
2023/09/21 01:46:21;;;;;;;4.25;2.13;;;17.50;99.90;;;;;;4992677;28;20069;-78
2023/09/21 01:48:51;;;;;;;5.78;2.15;;;17.50;99.90;;;;;;4992359;28;20035;-78
2023/09/21 01:51:16;;;;;;;3.55;1.50;;;17.40;99.90;;;;;;4991885;28;20068;-78
2023/09/21 01:53:48;;;;;;;3.33;1.50;;;17.40;99.90;;;;;;4991882;28;20126;-77
2023/09/21 01:56:15;;;;;;;2.78;1.58;;;17.40;99.90;;;;;;5005154;28;20062;-78
2023/09/21 01:58:41;;;;;;;5.15;1.80;;;17.40;99.90;;;;;;5001756;28;20068;-77
2023/09/21 02:01:06;;;;;;;2.95;1.90;;;17.30;99.90;;;;;;4987891;28;20030;-78
2023/09/21 02:03:39;;;;;;;4.00;1.70;;;17.30;99.90;;;;;;4986402;28;20109;-77
2023/09/21 02:06:05;;;;;;;3.28;1.60;;;17.30;99.90;;;;;;4989736;28;20029;-77
2023/09/21 02:08:34;;;;;;;5.90;1.80;;;17.30;99.90;;;;;;4987263;28;20954;-77
2023/09/21 02:11:05;;;;;;;3.35;1.80;;;17.20;99.90;;;;;;5005613;28;20030;-77
2023/09/21 02:13:31;;;;;;;6.95;1.95;;;17.20;99.90;;;;;;4989402;28;20508;-77
2023/09/21 02:15:57;;;;;;;2.63;1.77;;;17.20;99.90;;;;;;4989535;28;20026;-77
2023/09/21 02:18:23;;;;;;;4.38;1.63;;;17.20;99.90;;;;;;4988793;28;20117;-77
2023/09/21 02:20:55;;;;;;;2.63;1.42;;;17.20;99.90;;;;;;4989208;28;20473;-77
2023/09/21 02:23:20;;;;;;;7.80;1.83;;;17.20;99.90;;;;;;4990114;28;20462;-77
2023/09/21 02:25:46;;;;;;;2.75;1.70;;;17.20;99.90;;;;;;4989895;28;20065;-77
2023/09/21 02:28:15;;;;;;;2.60;1.70;;;17.20;99.90;;;;;;4987024;28;20054;-78
2023/09/21 02:30:51;;;;;;;6.60;1.88;;;17.10;99.90;;;;;;4989449;28;20572;-77
2023/09/21 02:33:17;;;;;;;3.92;1.90;;;17.20;99.90;;;;;;4988617;28;20030;-78
2023/09/21 02:35:44;;;;;;;3.15;2.15;;;17.20;99.90;;;;;;4988341;28;20026;-78
2023/09/21 02:38:13;;;;;;;3.10;1.60;;;17.10;99.90;;;;;;5003625;28;20058;-78
2023/09/21 02:40:42;;;;;;;3.15;1.70;;;17.10;99.90;;;;;;4990571;28;20022;-77
2023/09/21 02:43:08;;;;;;;3.67;1.70;;;17.10;99.90;;;;;;5004243;28;20110;-77
2023/09/21 02:45:37;;;;;;;5.97;1.80;;;17.10;99.90;;;;;;4993022;28;20164;-79
2023/09/21 02:48:03;;;;;;;3.85;2.28;;;17.10;99.90;;;;;;4991478;28;20022;-76
2023/09/21 02:50:39;;;;;;;4.75;1.90;;;17.20;99.90;;;;;;5000769;28;20030;-76
2023/09/21 02:53:06;;;;;;;4.97;2.10;;;17.10;99.90;;;;;;4988633;28;20018;-75
2023/09/21 02:55:39;;;;;;;4.07;2.20;;;17.10;99.90;;;;;;4988337;28;20014;-75
2023/09/21 02:58:13;;;;;;;3.45;2.05;;;17.20;99.90;;;;;;4989500;28;20390;-75
2023/09/21 03:00:44;;;;;;;3.60;1.92;;;17.10;99.90;;;;;;4990913;28;20109;-75
2023/09/21 03:03:20;;;;;;;5.72;2.33;;;17.10;99.90;;;;;;4988973;28;20042;-75
2023/09/21 03:05:47;;;;;;;3.95;2.00;;;17.10;99.90;;;;;;4985244;28;20022;-75
2023/09/21 03:08:17;;;;;;;5.32;1.65;;;17.10;99.90;;;;;;4988846;28;20059;-73
2023/09/21 03:10:53;;;;;;;4.68;1.75;;;17.10;99.90;;;;;;4991606;28;20026;-74
2023/09/21 03:13:20;;;;;;;5.15;2.33;;;17.10;99.90;;;;;;4990969;28;20076;-75
2023/09/21 03:15:47;;;;;;;3.22;2.20;;;17.20;99.90;;;;;;4990295;28;20022;-75
2023/09/21 03:18:13;;;;;;;2.65;1.88;;;17.20;99.90;;;;;;4991635;28;20018;-75
2023/09/21 03:20:40;;;;;;;4.15;1.75;;;17.20;99.90;;;;;;4990110;28;20030;-75
2023/09/21 03:23:09;;;;;;;3.95;1.95;;;17.20;99.90;;;;;;4992087;28;20027;-75
2023/09/21 03:25:42;;;;;;;4.28;1.77;;;17.20;99.90;;;;;;4987243;28;20034;-74
2023/09/21 03:28:19;;;;;;;2.67;1.75;;;17.30;99.90;;;;;;4988660;28;20026;-74
2023/09/21 03:30:46;;;;;;;5.10;1.85;;;17.30;99.90;;;;;;4988188;28;20547;-76
2023/09/21 03:33:14;;;;;;;3.97;1.60;;;17.30;99.90;;;;;;4992429;28;20049;-74
2023/09/21 03:35:40;;;;;;;2.60;1.73;;;17.30;99.90;;;;;;4989178;28;20011;-75
2023/09/21 03:38:10;;;;;;;4.35;1.73;;;17.30;99.90;;;;;;4990194;28;20037;-74
2023/09/21 03:40:43;;;;;;;2.90;2.00;;;17.30;99.90;;;;;;4989867;28;20358;-74
2023/09/21 03:43:12;;;;;;;4.22;2.15;;;17.30;99.90;;;;;;5003509;28;20989;-74
2023/09/21 03:45:43;;;;;;;6.90;2.53;;;17.30;99.90;;;;;;4988007;28;20030;-73
2023/09/21 03:48:12;;;;;;;4.63;2.40;;;17.30;99.90;;;;;;4989226;28;20512;-74
2023/09/21 03:50:41;;;;;;;5.90;3.33;;;17.30;99.90;;;;;;5003859;28;20033;-75
2023/09/21 03:53:10;;;;;;;7.43;3.58;;;17.30;99.90;;;;;;4987985;28;20030;-75
2023/09/21 03:55:39;;;;;;;4.30;2.72;;;17.30;99.90;;;;;;4987500;28;20046;-75
2023/09/21 03:58:07;;;;;;;6.82;3.55;;;17.30;99.90;;;;;;4990257;28;20030;-74
2023/09/21 04:00:36;;;;;;;4.07;2.55;;;17.20;99.90;;;;;;4989647;28;20034;-74
2023/09/21 04:03:10;;;;;;;6.30;3.20;;;17.20;99.90;;;;;;4985526;28;20054;-75
2023/09/21 04:05:37;;;;;;;4.90;3.25;;;17.20;99.90;;;;;;4988972;28;20033;-74
2023/09/21 04:08:07;;;;;;;12.10;3.20;;;17.20;99.90;;;;;;4988760;28;20058;-74
2023/09/21 04:10:33;;;;;;;5.50;3.55;;;17.10;99.90;;;;;;5004389;28;20042;-74
2023/09/21 04:12:59;;;;;;;6.10;3.85;;;17.20;99.90;;;;;;5005805;28;20038;-75
2023/09/21 04:15:26;;;;;;;6.00;3.47;;;17.10;99.90;;;;;;4990296;28;20065;-76
2023/09/21 04:17:52;;;;;;;7.45;3.38;;;17.20;99.90;;;;;;4988605;28;20423;-76
2023/09/21 04:20:19;;;;;;;6.90;4.25;;;17.10;99.90;;;;;;4989018;28;20069;-75
2023/09/21 04:22:45;;;;;;;5.03;3.75;;;17.10;99.90;;;;;;4986576;28;20022;-74
2023/09/21 04:25:17;;;;;;;6.57;3.47;;;17.00;99.90;;;;;;4990257;28;20236;-75
2023/09/21 04:27:45;;;;;;;5.10;3.08;;;17.10;99.90;;;;;;5004444;28;20022;-74
2023/09/21 04:30:14;;;;;;;4.82;2.38;;;17.00;99.90;;;;;;4989013;28;20077;-74
2023/09/21 04:32:41;;;;;;;6.07;2.60;;;16.90;99.90;;;;;;4994339;28;20024;-74
2023/09/21 04:35:10;;;;;;;4.07;2.80;;;16.90;99.90;;;;;;4990579;28;20438;-74
2023/09/21 04:37:38;;;;;;;6.47;2.88;;;16.90;99.90;;;;;;4989295;28;20029;-73
2023/09/21 04:40:10;;;;;;;8.10;3.05;;;16.90;99.90;;;;;;4987862;28;20090;-75
2023/09/21 04:42:46;;;;;;;7.47;3.53;;;16.90;99.90;;;;;;4992738;28;20056;-73
2023/09/21 04:45:18;;;;;;;4.97;3.15;;;16.90;99.90;;;;;;4990628;28;20030;-75
2023/09/21 04:47:49;;;;;;;5.88;2.50;;;16.90;99.90;;;;;;5003235;28;20516;-76
2023/09/21 04:50:16;;;;;;;4.97;2.92;;;16.80;99.90;;;;;;4987952;28;20050;-76
2023/09/21 04:52:43;;;;;;;4.90;3.13;;;16.80;99.90;;;;;;4988524;28;20413;-75
2023/09/21 04:55:10;;;;;;;6.72;2.80;;;16.80;99.90;;;;;;4988255;28;20034;-75
2023/09/21 04:57:36;;;;;;;3.47;2.83;;;16.80;99.90;;;;;;4983027;28;20046;-76
2023/09/21 05:00:07;;;;;;;5.00;2.88;;;16.80;99.90;;;;;;5006079;28;20177;-75
2023/09/21 05:02:33;;;;;;;8.52;3.17;;;16.70;99.90;;;;;;4991144;28;20023;-75
2023/09/21 05:05:02;;;;;;;7.50;3.08;;;16.70;99.90;;;;;;5009891;28;20034;-74
2023/09/21 05:07:28;;;;;;;4.43;3.08;;;16.70;99.90;;;;;;4987618;28;20485;-75
2023/09/21 05:09:54;;;;;;;6.45;3.45;;;16.70;99.90;;;;;;4983620;28;20045;-75
2023/09/21 05:12:27;;;;;;;4.55;3.30;;;16.70;99.90;;;;;;4988354;28;20027;-75
2023/09/21 05:14:52;;;;;;;6.40;3.63;;;16.70;99.90;;;;;;4988102;28;20770;-75
2023/09/21 05:17:21;;;;;;;5.43;3.05;;;16.70;99.90;;;;;;5001837;28;20035;-75
2023/09/21 05:19:53;;;;;;;6.50;3.35;;;16.70;99.90;;;;;;4989090;28;20315;-74
2023/09/21 05:22:19;;;;;;;7.32;3.72;;;16.70;99.90;;;;;;4990495;28;20109;-74
2023/09/21 05:24:44;;;;;;;4.53;3.08;;;16.70;99.90;;;;;;4984237;28;20105;-75
2023/09/21 05:27:17;;;;;;;6.13;3.17;;;16.70;99.90;;;;;;4989742;28;20495;-76
2023/09/21 05:29:45;;;;;;;4.35;3.22;;;16.70;99.90;;;;;;4989808;28;20026;-75
2023/09/21 05:32:14;;;;;;;4.68;3.10;;;16.70;99.90;;;;;;4984324;28;20053;-75
2023/09/21 05:34:42;;;;;;;4.80;3.10;;;16.70;99.90;;;;;;4983538;28;20126;-75
2023/09/21 05:37:11;;;;;;;6.40;3.42;;;16.70;99.90;;;;;;5005412;28;20022;-76
2023/09/21 05:39:38;;;;;;;8.77;3.60;;;16.70;99.90;;;;;;4989508;28;20077;-76
2023/09/21 05:42:04;;;;;;;6.82;3.60;;;16.70;99.90;;;;;;4986324;28;20053;-77
2023/09/21 05:44:33;;;;;;;7.03;3.55;;;16.70;99.90;;;;;;4982698;28;20026;-75
2023/09/21 05:46:58;;;;;;;8.40;3.88;;;16.70;99.90;;;;;;4991558;28;20046;-74
2023/09/21 05:49:24;;;;;;;7.32;3.60;;;16.70;99.90;;;;;;4991875;28;20026;-73
2023/09/21 05:51:52;;;;;;;5.88;4.00;;;16.70;99.90;;;;;;4991928;28;20034;-75
2023/09/21 05:54:20;;;;;;;7.40;3.50;;;16.70;99.90;;;;;;4992127;28;20023;-73
2023/09/21 05:56:55;;;;;;;6.40;3.80;;;16.80;99.90;;;;;;4992882;28;20030;-76
2023/09/21 05:59:24;;;;;;;7.18;3.45;;;16.80;99.90;;;;;;4979646;28;20052;-72
2023/09/21 06:01:50;;;;;;;6.65;3.47;;;16.80;99.90;;;;;;5008474;28;20026;-74
2023/09/21 06:04:21;;;;;;;8.43;4.30;;;16.90;99.90;;;;;;4992746;28;20029;-73
2023/09/21 06:06:47;;;;;;;5.47;3.83;;;16.90;99.90;;;;;;4993058;28;20053;-75
2023/09/21 06:09:20;;;;;;;6.18;3.50;;;16.90;99.90;;;;;;4992999;28;20037;-71
2023/09/21 06:11:50;;;;;;;9.65;3.85;;;17.00;99.90;;;;;;4999757;28;20033;-72
2023/09/21 06:14:22;;;;;;;6.75;3.55;;;17.10;99.90;;;;;;4990088;28;20042;-72
2023/09/21 06:16:49;;;;;;;8.95;3.17;;;17.10;99.90;;;;;;4992486;28;20027;-74
2023/09/21 06:19:15;;;;;;;7.40;3.80;;;17.10;99.90;;;;;;4992808;28;20500;-73
2023/09/21 06:21:41;;;;;;;5.57;2.72;;;17.20;99.90;;;;;;4992163;28;20156;-71
2023/09/21 06:24:09;;;;;;;5.63;2.80;;;17.20;99.90;;;;;;4994233;28;20066;-73
2023/09/21 06:26:38;;;;;;;6.00;3.65;;;17.20;99.90;;;;;;4960561;28;20069;-74
2023/09/21 06:29:04;;;;;;;9.05;3.15;;;17.30;99.90;;;;;;5008880;28;20018;-73
2023/09/21 06:31:30;;;;;;;12.00;6.97;;;17.30;99.90;;;;;;4996416;28;20032;-71
2023/09/21 06:33:59;;;;;;;14.68;7.78;;;17.40;99.90;;;;;;4995453;28;20014;-72
2023/09/21 06:36:28;;;;;;;15.07;7.82;;;17.50;99.90;;;;;;4994958;28;20025;-72
2023/09/21 06:39:00;;;;;;;9.80;4.18;;;17.60;99.90;;;;;;5010823;28;20037;-73
2023/09/21 06:41:27;;;;;;;7.03;2.75;;;17.70;99.90;;;;;;4987223;28;20039;-74
2023/09/21 06:43:53;;;;;;;5.90;2.55;;;17.70;99.90;;;;;;4988711;28;20034;-74
2023/09/21 06:46:19;;;;;;;3.78;2.20;;;17.80;99.90;;;;;;4991527;28;20053;-74
2023/09/21 06:48:45;;;;;;;6.63;2.47;;;17.80;99.90;;;;;;4986049;28;20045;-75
2023/09/21 06:51:11;;;;;;;3.97;2.38;;;17.90;99.90;;;;;;4988507;28;20065;-74
2023/09/21 06:53:37;;;;;;;3.30;2.30;;;18.00;99.90;;;;;;4982476;28;20683;-74
2023/09/21 06:56:03;;;;;;;4.90;2.25;;;18.00;99.90;;;;;;4986785;28;20026;-74
2023/09/21 06:58:33;;;;;;;4.72;2.28;;;18.10;99.90;;;;;;5001434;28;20081;-74
2023/09/21 07:01:11;;;;;;;3.67;2.58;;;18.10;99.90;;;;;;4985414;28;20133;-74
2023/09/21 07:03:36;;;;;;;6.72;1.80;;;18.20;99.90;;;;;;5005597;28;20022;-74
2023/09/21 07:06:02;;;;;;;4.20;2.30;;;18.30;99.90;;;;;;4986836;28;20034;-74
2023/09/21 07:08:28;;;;;;;7.97;3.45;;;18.40;99.90;;;;;;4986524;28;20072;-74
2023/09/21 07:10:53;;;;;;;4.88;2.72;;;18.50;99.90;;;;;;4987138;28;20042;-74
2023/09/21 07:13:25;;;;;;;6.45;2.88;;;18.50;99.90;;;;;;5004528;28;20057;-74
2023/09/21 07:15:55;;;;;;;5.72;2.85;;;18.60;99.90;;;;;;4989443;28;20036;-75
2023/09/21 07:18:31;;;;;;;6.80;3.50;;;18.60;99.90;;;;;;4989914;28;20026;-74
2023/09/21 07:20:59;;;;;;;6.88;4.00;;;18.70;99.90;;;;;;5004499;28;20026;-73
2023/09/21 07:23:25;;;;;;;10.25;3.95;;;18.80;99.90;;;;;;4991034;28;20038;-74
2023/09/21 07:25:53;;;;;;;6.82;4.20;;;18.80;99.90;;;;;;4991584;28;20480;-73
2023/09/21 07:28:19;;;;;;;7.55;4.47;;;18.90;99.90;;;;;;4988758;28;20144;-74
2023/09/21 07:30:44;;;;;;;5.18;3.25;;;18.90;99.90;;;;;;4987683;28;20109;-74
2023/09/21 07:33:13;;;;;;;6.32;3.83;;;19.00;99.90;;;;;;4991743;28;20023;-74
2023/09/21 07:35:39;;;;;;;4.82;2.83;;;19.00;99.90;;;;;;5007496;28;20089;-73
2023/09/21 07:38:08;;;;;;;5.30;2.83;;;19.00;99.90;;;;;;4989458;28;20030;-74
2023/09/21 07:40:34;;;;;;;4.53;2.28;;;19.00;99.90;;;;;;4991337;28;20052;-74
2023/09/21 07:43:03;;;;;;;5.05;2.72;;;19.10;99.90;;;;;;4991120;28;20030;-74
2023/09/21 07:45:30;;;;;;;6.68;2.90;;;19.10;99.90;;;;;;4989866;28;20034;-73
2023/09/21 07:47:56;;;;;;;5.22;2.92;;;19.20;99.90;;;;;;4987871;28;20026;-74
2023/09/21 07:50:34;;;;;;;7.10;2.90;;;19.20;99.90;;;;;;4986603;28;20445;-73
2023/09/21 07:53:03;;;;;;;4.68;2.80;;;19.30;99.90;;;;;;5005120;28;20070;-73
2023/09/21 07:55:34;;;;;;;3.92;2.30;;;19.30;99.90;;;;;;4981602;28;20019;-74
2023/09/21 07:57:59;;;;;;;6.10;2.45;;;19.30;99.90;;;;;;4997941;28;20374;-73
2023/09/21 08:00:29;;;;;;;4.00;2.00;;;19.40;99.90;;;;;;4989580;28;20038;-74
2023/09/21 08:02:58;;;;;;;7.88;2.25;;;19.40;99.90;;;;;;5001977;28;20031;-73
2023/09/21 08:05:25;;;;;;;3.70;2.08;;;19.40;99.90;;;;;;4989826;28;20481;-73
2023/09/21 08:07:51;;;;;;;4.53;2.50;;;19.50;99.90;;;;;;4987752;28;20023;-73
2023/09/21 08:10:32;;;;;;;4.82;2.28;;;19.60;99.90;;;;;;4988231;28;20101;-73
2023/09/21 08:13:01;;;;;;;3.05;1.98;;;19.60;99.90;;;;;;4991686;28;20038;-73
2023/09/21 08:15:30;;;;;;;2.90;1.92;;;19.70;99.90;;;;;;5003945;28;20720;-74
2023/09/21 08:17:56;;;;;;;4.60;2.15;;;19.80;99.90;;;;;;4989576;28;20030;-74
2023/09/21 08:20:32;;;;;;;4.10;2.60;;;19.80;99.90;;;;;;5001495;28;20433;-73
2023/09/21 08:22:57;;;;;;;7.80;2.90;;;19.90;99.90;;;;;;4989413;28;20041;-74
2023/09/21 08:25:23;;;;;;;6.10;2.30;;;19.90;99.90;;;;;;4986299;28;20045;-74
2023/09/21 08:27:48;;;;;;;2.45;2.03;;;20.00;99.90;;;;;;4987469;28;20450;-74
2023/09/21 08:30:15;;;;;;;4.60;2.30;;;20.10;99.90;;;;;;5007044;28;20037;-74
2023/09/21 08:32:41;;;;;;;4.30;2.28;;;20.10;99.90;;;;;;4987498;28;20563;-74
2023/09/21 08:35:08;;;;;;;4.65;2.17;;;20.20;99.90;;;;;;4989192;28;20113;-74
2023/09/21 08:37:35;;;;;;;8.18;2.67;;;20.30;99.90;;;;;;4989535;28;20094;-74
2023/09/21 08:40:07;;;;;;;6.57;2.42;;;20.40;99.90;;;;;;4987221;28;20087;-73
2023/09/21 08:42:37;;;;;;;6.53;1.85;;;20.60;99.90;;;;;;5000659;28;20138;-74
2023/09/21 08:45:08;;;;;;;3.42;1.92;;;20.70;99.90;;;;;;4988926;28;20046;-73
2023/09/21 08:47:34;;;;;;;5.22;2.20;;;20.80;99.90;;;;;;4989093;28;20037;-76
2023/09/21 08:50:13;;;;;;;5.53;2.28;;;20.90;99.90;;;;;;4988468;28;20034;-75
2023/09/21 08:52:45;;;;;;;6.35;1.90;;;21.00;99.90;;;;;;4991184;28;20030;-76
2023/09/21 08:55:14;;;;;;;7.13;2.40;;;21.00;99.90;;;;;;4988619;28;20022;-76
2023/09/21 08:57:40;;;;;;;4.90;2.85;;;21.10;99.90;;;;;;4986840;28;20030;-75
2023/09/21 09:00:09;;;;;;;6.82;2.45;;;21.20;99.90;;;;;;4986731;28;20053;-75
2023/09/21 09:02:36;;;;;;;3.63;2.08;;;21.30;99.90;;;;;;4985304;28;20022;-76
2023/09/21 09:05:11;;;;;;;7.43;2.65;;;21.40;99.90;;;;;;4997176;28;20038;-76
2023/09/21 09:07:41;;;;;;;7.65;3.10;;;21.50;99.90;;;;;;5003254;28;20556;-76
2023/09/21 09:10:14;;;;;;;5.45;2.65;;;21.60;99.90;;;;;;5001378;28;20117;-76
2023/09/21 09:12:46;;;;;;;6.45;3.33;;;21.70;99.90;;;;;;5000805;28;20401;-75
2023/09/21 09:15:31;;;;;;;5.38;2.67;;;21.80;99.90;;;;;;4988669;28;20449;-77
2023/09/21 09:18:02;;;;;;;6.50;2.95;;;21.90;99.90;;;;;;4988821;28;20033;-76
2023/09/21 09:20:37;;;;;;;5.53;2.50;;;21.90;99.90;;;;;;4986749;28;20121;-76
2023/09/21 09:23:10;;;;;;;5.55;2.10;;;22.00;99.90;;;;;;5003922;28;20034;-76
2023/09/21 09:25:55;;;;;;;4.20;2.13;;;22.10;99.90;;;;;;4986033;28;20033;-77
2023/09/21 09:28:21;;;;;;;3.55;1.77;;;22.10;99.90;;;;;;4986197;28;20034;-76
2023/09/21 09:30:52;;;;;;;4.65;2.30;;;22.20;99.90;;;;;;4987314;28;20034;-77
2023/09/21 09:33:19;;;;;;;9.60;2.13;;;22.30;99.90;;;;;;4987642;28;20049;-76
2023/09/21 09:35:46;;;;;;;6.10;2.22;;;22.40;99.90;;;;;;4986145;28;20107;-77
2023/09/21 09:38:12;;;;;;;4.50;1.50;;;22.40;99.90;;;;;;4986443;28;20057;-77
2023/09/21 09:40:38;;;;;;;4.63;2.08;;;22.50;99.90;;;;;;4984821;28;20061;-76
2023/09/21 09:43:07;;;;;;;4.38;2.13;;;22.50;99.90;;;;;;4988711;28;20050;-76
2023/09/21 09:45:39;;;;;;;5.40;1.65;;;22.60;99.90;;;;;;4983206;28;20046;-77
2023/09/21 09:48:11;;;;;;;3.83;1.77;;;22.70;99.90;;;;;;4989984;28;20084;-77
2023/09/21 09:50:41;;;;;;;3.67;2.13;;;22.70;99.90;;;;;;5002803;28;20520;-76
2023/09/21 09:53:17;;;;;;;2.35;1.35;;;22.80;99.90;;;;;;4988758;28;20520;-77
2023/09/21 09:55:44;;;;;;;5.40;1.73;;;22.80;99.90;;;;;;4983209;28;20018;-77
2023/09/21 09:58:15;;;;;;;3.83;1.52;;;22.90;99.90;;;;;;4988918;28;20018;-77
2023/09/21 10:00:44;;;;;;;4.78;1.95;;;22.90;99.90;;;;;;4989650;28;20662;-77
2023/09/21 10:03:12;;;;;;;3.85;1.88;;;22.90;99.90;;;;;;4982738;28;20134;-77
2023/09/21 10:05:39;;;;;;;5.75;2.10;;;22.90;99.90;;;;;;5004535;28;20113;-77
2023/09/21 10:08:07;;;;;;;7.68;1.85;;;23.00;99.90;;;;;;4988968;28;20458;-77
2023/09/21 10:10:54;;;;;;;2.75;1.38;;;23.10;99.90;;;;;;4988659;28;20041;-73
2023/09/21 10:13:25;;;;;;;4.28;1.50;;;23.20;99.70;;;;;;4987568;28;20384;-74
2023/09/21 10:16:01;;;;;;;3.55;1.52;;;23.40;98.90;;;;;;4984296;28;20394;-75
2023/09/21 10:18:37;;;;;;;3.08;1.42;;;23.60;99.00;;;;;;4983465;28;20440;-74
2023/09/21 10:21:39;;;;;;;4.20;1.58;;;23.70;98.30;;;;;;4987181;28;20358;-75
2023/09/21 10:24:14;;;;;;;2.92;1.67;;;23.90;98.10;;;;;;4983865;28;20030;-79
2023/09/21 10:26:45;;;;;;;3.10;1.63;;;23.90;97.20;;;;;;4985546;28;20039;-78
2023/09/21 10:29:14;;;;;;;5.20;1.85;;;24.00;97.10;;;;;;4987836;28;20030;-79
2023/09/21 10:31:44;;;;;;;3.85;2.17;;;24.10;97.10;;;;;;4989441;28;20100;-78
2023/09/21 10:34:11;;;;;;;2.30;1.60;;;24.10;96.80;;;;;;4986787;28;20516;-78
2023/09/21 10:36:42;;;;;;;3.10;1.77;;;24.10;96.90;;;;;;4987199;28;20389;-79
2023/09/21 10:39:10;;;;;;;4.43;1.65;;;24.10;97.30;;;;;;4999909;28;20027;-78
2023/09/21 10:41:45;;;;;;;3.75;1.50;;;24.20;96.90;;;;;;4986947;28;20029;-79
2023/09/21 10:44:53;;;;;;;4.75;1.70;;;24.20;96.40;;;;;;4982666;28;20093;-78
2023/09/21 10:47:38;;;;;;;4.10;1.58;;;24.20;96.10;;;;;;4979359;28;20063;-77
2023/09/21 10:50:12;;;;;;;2.75;1.40;;;24.20;96.60;;;;;;4979797;28;20450;-77
2023/09/21 10:52:44;;;;;;;4.13;1.77;;;24.20;96.40;;;;;;4985772;28;20030;-78
2023/09/21 10:55:16;;;;;;;4.63;2.22;;;24.20;96.20;;;;;;4985780;28;20065;-78
2023/09/21 10:57:43;;;;;;;4.60;1.77;;;24.20;96.20;;;;;;4986580;28;20027;-78
2023/09/21 11:00:21;;;;;;;6.95;1.50;;;24.20;96.60;;;;;;4977683;28;20034;-79
2023/09/21 11:02:50;;;;;;;9.27;2.50;;;24.20;96.60;;;;;;4999368;28;20022;-78
2023/09/21 11:05:17;;;;;;;5.55;1.60;;;24.20;96.30;;;;;;4983504;28;20116;-78
2023/09/21 11:07:48;;;;;;;4.53;2.15;;;24.20;95.90;;;;;;4982816;28;20477;-78
2023/09/21 11:10:14;;;;;;;2.75;1.70;;;24.20;95.90;;;;;;4988478;28;20425;-77
2023/09/21 11:12:44;;;;;;;3.45;2.20;;;24.20;96.20;;;;;;4986179;28;20046;-78
2023/09/21 11:15:12;;;;;;;3.60;1.42;;;24.20;95.60;;;;;;4987187;28;20019;-78
2023/09/21 11:17:43;;;;;;;3.97;1.83;;;24.10;95.00;;;;;;4989503;28;20019;-78
2023/09/21 11:20:13;;;;;;;4.20;1.58;;;24.20;94.00;;;;;;4985438;28;20129;-78
2023/09/21 11:22:44;;;;;;;1.30;0.90;;;24.20;93.00;;;;;;5005500;28;20093;-78
2023/09/21 11:25:11;;;;;;;1.65;1.55;;;24.30;92.60;;;;;;4993383;28;20030;-79
2023/09/21 11:27:43;;;;;;;1.88;0.80;;;24.30;92.60;;;;;;4992142;28;20034;-78
2023/09/21 11:30:13;;;;;;;1.92;0.93;;;24.40;92.00;;;;;;4985246;28;20046;-78
2023/09/21 11:32:45;;;;;;;1.52;1.15;;;24.50;91.70;;;;;;5002232;28;20495;-74
2023/09/21 11:35:18;;;;;;;1.63;0.93;;;24.70;91.60;;;;;;5004565;28;20127;-78
2023/09/21 11:37:49;;;;;;;1.52;1.00;;;24.80;91.20;;;;;;4994660;28;20026;-78
2023/09/21 11:40:23;;;;;;;2.38;0.98;;;25.00;91.20;;;;;;4995807;28;20034;-78
2023/09/21 11:42:50;;;;;;;1.75;0.95;;;25.00;90.80;;;;;;4987864;28;20109;-79
2023/09/21 11:45:26;;;;;;;1.08;0.73;;;25.10;91.00;;;;;;4987236;28;20034;-76
2023/09/21 11:47:59;;;;;;;1.48;0.68;;;25.30;90.20;;;;;;4986177;28;20030;-74
2023/09/21 11:50:30;;;;;;;1.55;0.80;;;25.40;88.90;;;;;;4986690;28;20027;-78
2023/09/21 11:52:58;;;;;;;2.47;0.73;;;25.40;88.20;;;;;;4988449;28;20105;-78
2023/09/21 11:55:26;;;;;;;2.00;0.95;;;25.50;88.60;;;;;;4991274;28;20057;-78
2023/09/21 11:58:07;;;;;;;3.65;1.35;;;25.50;88.20;;;;;;4991029;28;20034;-78
2023/09/21 12:00:44;;;;;;;2.53;1.50;;;25.60;90.30;;;;;;5003454;28;20965;-78
2023/09/21 12:03:16;;;;;;;4.35;1.20;;;25.70;90.90;;;;;;4993844;28;20031;-77
2023/09/21 12:05:51;;;;;;;2.22;1.50;;;25.80;91.00;;;;;;4988786;28;20026;-78
2023/09/21 12:08:19;;;;;;;2.22;1.27;;;25.80;90.80;;;;;;4987249;28;20050;-78
2023/09/21 12:10:47;;;;;;;4.15;1.55;;;25.80;90.80;;;;;;4991389;28;20019;-78
2023/09/21 12:13:16;;;;;;;11.93;1.83;;;25.80;91.10;;;;;;5001720;28;20520;-73
2023/09/21 12:15:42;;;;;;;2.13;1.48;;;25.80;91.60;;;;;;4983436;28;20114;-73
2023/09/21 12:18:12;;;;;;;2.15;1.25;;;25.80;91.00;;;;;;5003421;28;20045;-72
2023/09/21 12:20:44;;;;;;;1.85;1.45;;;25.80;90.80;;;;;;4986104;28;20189;-72
2023/09/21 12:23:29;;;;;;;4.05;2.28;;;25.80;91.00;;;;;;4983638;28;20030;-73
2023/09/21 12:26:01;;;;;;;4.13;1.65;;;25.80;91.00;;;;;;4986437;28;20109;-73
2023/09/21 12:28:27;;;;;;;4.05;1.83;;;25.80;91.30;;;;;;4986948;28;20034;-73
2023/09/21 12:31:01;;;;;;;2.97;1.40;;;25.80;91.20;;;;;;4995510;28;20515;-73
2023/09/21 12:33:31;;;;;;;4.05;1.40;;;25.80;91.00;;;;;;4982679;28;20113;-73
2023/09/21 12:35:58;;;;;;;3.08;1.27;;;25.80;90.70;;;;;;4987483;28;21116;-78
2023/09/21 12:38:24;;;;;;;4.03;1.45;;;25.80;90.70;;;;;;5008571;28;20468;-77
2023/09/21 12:40:59;;;;;;;2.58;1.58;;;25.80;90.90;;;;;;4992081;28;20026;-78
2023/09/21 12:43:35;;;;;;;6.70;1.60;;;25.90;90.70;;;;;;4994117;28;20113;-78
2023/09/21 12:46:02;;;;;;;5.57;1.23;;;25.90;90.60;;;;;;4995426;28;20038;-78
2023/09/21 12:48:30;;;;;;;3.25;1.20;;;25.90;90.20;;;;;;4993582;28;20101;-78
2023/09/21 12:50:56;;;;;;;2.15;1.48;;;25.90;89.40;;;;;;4991823;28;20026;-79
2023/09/21 12:53:21;;;;;;;3.05;1.98;;;25.90;89.30;;;;;;4991814;28;20083;-80
2023/09/21 12:55:50;;;;;;;6.50;3.53;;;25.90;89.50;;;;;;4993110;28;20027;-78
2023/09/21 12:58:21;;;;;;;3.60;1.55;;;25.90;89.80;;;;;;4993432;28;20038;-79